createdAt,value
2018-07-07T00:02:41.588Z,19.10
2018-07-07T00:07:45.921Z,19.10
2018-07-07T00:12:50.062Z,19.00
2018-07-07T00:17:54.131Z,19.10
2018-07-07T00:22:58.194Z,19.10
2018-07-07T00:28:02.283Z,19.10
2018-07-07T00:33:06.799Z,19.10
2018-07-07T00:38:11.109Z,18.90
2018-07-07T00:43:15.426Z,19.00
2018-07-07T00:48:19.636Z,19.00
2018-07-07T00:58:58.626Z,19.00
2018-07-07T01:04:02.883Z,19.00
2018-07-07T01:09:07.153Z,19.00
2018-07-07T01:14:11.744Z,18.90
2018-07-07T01:19:16.045Z,18.60
2018-07-07T01:24:20.289Z,18.80
2018-07-07T01:29:24.492Z,18.60
2018-07-07T01:34:28.758Z,18.60
2018-07-07T01:39:32.942Z,18.70
2018-07-07T01:44:37.162Z,18.80
2018-07-07T01:49:41.399Z,18.70
2018-07-07T01:54:45.583Z,18.70
2018-07-07T01:59:49.782Z,18.70
2018-07-07T02:04:53.952Z,18.70
2018-07-07T02:09:58.089Z,18.60
2018-07-07T02:15:02.383Z,18.50
2018-07-07T02:20:06.503Z,18.50
2018-07-07T02:25:10.647Z,18.50
2018-07-07T02:30:14.859Z,18.30
2018-07-07T02:35:19.285Z,18.40
2018-07-07T02:40:23.439Z,18.20
2018-07-07T02:45:27.736Z,18.20
2018-07-07T02:50:32.133Z,18.30
2018-07-07T02:55:36.440Z,18.40
2018-07-07T03:00:41.008Z,18.30
2018-07-07T03:05:45.313Z,18.20
2018-07-07T03:10:49.631Z,18.30
2018-07-07T03:20:57.797Z,18.00
2018-07-07T03:26:02.907Z,18.00
2018-07-07T03:31:07.336Z,18.00
2018-07-07T03:36:11.629Z,17.90
2018-07-07T03:41:15.727Z,17.90
2018-07-07T03:46:20.062Z,18.00
2018-07-07T03:51:24.228Z,18.00
2018-07-07T03:56:28.504Z,17.90
2018-07-07T04:01:33.110Z,17.80
2018-07-07T04:06:37.371Z,17.80
2018-07-07T04:11:41.714Z,18.00
2018-07-07T04:16:45.849Z,18.50
2018-07-07T04:21:49.929Z,18.40
2018-07-07T04:26:54.079Z,18.60
2018-07-07T04:31:58.158Z,18.50
2018-07-07T04:37:02.324Z,18.80
2018-07-07T04:42:06.533Z,19.00
2018-07-07T04:47:10.680Z,19.40
2018-07-07T04:52:14.939Z,19.60
2018-07-07T04:57:19.067Z,19.90
2018-07-07T05:02:23.177Z,20.00
2018-07-07T05:07:27.314Z,19.70
2018-07-07T05:12:31.643Z,20.20
2018-07-07T05:17:35.986Z,20.00
2018-07-07T05:22:40.322Z,20.50
2018-07-07T05:27:44.382Z,20.90
2018-07-07T05:32:48.721Z,20.60
2018-07-07T05:37:53.433Z,21.00
2018-07-07T05:42:57.533Z,21.10
2018-07-07T05:48:02.972Z,21.80
2018-07-07T05:53:07.367Z,22.20
2018-07-07T05:58:11.805Z,21.00
2018-07-07T06:03:16.329Z,21.20
2018-07-07T06:08:20.407Z,21.40
2018-07-07T06:13:24.715Z,21.50
2018-07-07T06:18:28.933Z,21.30
2018-07-07T06:23:36.247Z,20.70
2018-07-07T06:28:40.587Z,21.10
2018-07-07T06:33:45.745Z,21.80
2018-07-07T06:38:49.873Z,21.90
2018-07-07T06:43:53.990Z,21.80
2018-07-07T06:48:58.094Z,21.50
2018-07-07T06:54:02.451Z,21.60
2018-07-07T06:59:06.697Z,21.80
2018-07-07T07:04:11.022Z,21.80
2018-07-07T07:09:16.271Z,21.70
2018-07-07T07:14:20.613Z,22.30
2018-07-07T07:19:24.797Z,22.50
2018-07-07T07:24:29.044Z,22.90
2018-07-07T07:29:33.762Z,22.80
2018-07-07T07:34:38.410Z,22.70
2018-07-07T07:39:42.649Z,22.70
2018-07-07T07:44:47.183Z,23.20
2018-07-07T07:49:51.367Z,23.20
2018-07-07T07:54:56.597Z,23.40
2018-07-07T08:00:00.863Z,23.40
2018-07-07T08:05:05.136Z,23.50
2018-07-07T08:10:09.328Z,23.40
2018-07-07T08:15:13.679Z,23.80
2018-07-07T08:20:17.882Z,24.00
2018-07-07T08:25:22.416Z,24.60
2018-07-07T08:30:26.612Z,24.50
2018-07-07T08:35:31.287Z,24.60
2018-07-07T08:40:36.169Z,24.70
2018-07-07T08:45:40.641Z,24.70
2018-07-07T08:50:45.618Z,24.60
2018-07-07T08:55:49.880Z,24.60
2018-07-07T09:00:54.056Z,24.20
2018-07-07T09:05:58.378Z,24.30
2018-07-07T09:11:02.732Z,24.20
2018-07-07T09:16:07.422Z,24.40
2018-07-07T09:21:11.610Z,24.00
2018-07-07T09:26:15.830Z,24.30
2018-07-07T09:31:20.014Z,24.80
2018-07-07T09:36:24.183Z,24.80
2018-07-07T09:41:28.286Z,25.00
2018-07-07T09:46:32.730Z,25.50
2018-07-07T09:51:37.433Z,25.60
2018-07-07T09:56:41.609Z,25.60
2018-07-07T10:01:45.848Z,25.20
2018-07-07T10:06:49.941Z,25.20
2018-07-07T10:11:54.133Z,25.50
2018-07-07T10:16:58.213Z,25.10
2018-07-07T10:22:02.405Z,25.40
2018-07-07T10:27:07.009Z,25.60
2018-07-07T10:32:11.253Z,25.50
2018-07-07T10:37:15.362Z,25.70
2018-07-07T10:42:19.493Z,25.50
2018-07-07T10:47:23.587Z,25.50
2018-07-07T10:52:27.702Z,25.90
2018-07-07T10:57:31.989Z,26.20
2018-07-07T11:02:36.293Z,26.00
2018-07-07T11:07:40.455Z,26.10
2018-07-07T11:12:44.640Z,25.90
2018-07-07T11:17:48.866Z,26.00
2018-07-07T11:22:52.913Z,26.20
2018-07-07T11:27:56.985Z,26.20
2018-07-07T11:33:01.290Z,25.80
2018-07-07T11:38:05.845Z,26.00
2018-07-07T11:43:10.286Z,26.00
2018-07-07T11:48:14.757Z,26.30
2018-07-07T11:53:18.873Z,25.80
2018-07-07T11:58:23.010Z,25.40
2018-07-07T12:03:27.220Z,25.60
2018-07-07T12:08:31.838Z,25.90
2018-07-07T12:13:36.195Z,26.00
2018-07-07T12:18:40.555Z,25.70
2018-07-07T12:23:44.665Z,25.90
2018-07-07T12:28:48.895Z,25.90
2018-07-07T12:33:52.970Z,25.90
2018-07-07T12:38:57.110Z,25.80
2018-07-07T12:44:01.257Z,26.10
2018-07-07T12:49:05.641Z,26.10
2018-07-07T12:54:09.942Z,26.00
2018-07-07T12:59:14.050Z,25.90
2018-07-07T13:04:18.965Z,25.70
2018-07-07T13:09:23.166Z,25.60
2018-07-07T13:14:27.245Z,25.80
2018-07-07T13:19:31.648Z,25.70
2018-07-07T13:24:36.953Z,25.60
2018-07-07T13:29:41.728Z,25.80
2018-07-07T13:34:45.944Z,25.80
2018-07-07T13:39:50.134Z,25.60
2018-07-07T13:44:54.289Z,25.80
2018-07-07T13:49:58.392Z,25.90
2018-07-07T13:55:02.712Z,25.80
2018-07-07T14:00:07.144Z,25.80
2018-07-07T14:05:11.297Z,25.70
2018-07-07T14:10:15.405Z,25.90
2018-07-07T14:15:19.674Z,26.00
2018-07-07T14:20:23.821Z,26.10
2018-07-07T14:25:28.034Z,26.10
2018-07-07T14:30:32.332Z,25.80
2018-07-07T14:35:36.586Z,25.80
2018-07-07T14:40:51.043Z,25.90
2018-07-07T14:46:07.245Z,25.90
2018-07-07T14:51:11.423Z,25.80
2018-07-07T14:56:16.503Z,25.80
2018-07-07T15:01:20.752Z,25.80
2018-07-07T15:06:24.934Z,25.90
2018-07-07T15:11:29.149Z,25.70
2018-07-07T15:16:34.769Z,25.70
2018-07-07T15:21:39.122Z,25.60
2018-07-07T15:26:43.337Z,25.70
2018-07-07T15:31:48.359Z,25.60
2018-07-07T15:36:52.481Z,25.60
2018-07-07T15:41:56.586Z,25.70
2018-07-07T15:47:01.239Z,25.70
2018-07-07T15:52:05.745Z,25.60
2018-07-07T15:57:10.031Z,25.70
2018-07-07T16:02:14.193Z,25.70
2018-07-07T16:07:18.459Z,25.60
2018-07-07T16:12:22.714Z,25.80
2018-07-07T16:17:26.812Z,25.70
2018-07-07T16:22:31.789Z,25.30
2018-07-07T16:27:36.196Z,25.40
2018-07-07T16:32:41.336Z,25.40
2018-07-07T16:37:45.409Z,25.50
2018-07-07T16:42:49.638Z,25.00
2018-07-07T16:47:53.938Z,25.10
2018-07-07T16:52:58.281Z,25.20
2018-07-07T16:58:02.587Z,24.90
2018-07-07T17:03:07.208Z,24.80
2018-07-07T17:08:12.062Z,25.00
2018-07-07T17:13:16.628Z,24.70
2018-07-07T17:18:20.925Z,24.80
2018-07-07T17:23:25.011Z,24.80
2018-07-07T17:33:33.367Z,24.80
2018-07-07T17:38:38.113Z,24.60
2018-07-07T17:48:46.142Z,24.70
2018-07-07T17:53:50.481Z,24.40
2018-07-07T17:58:54.794Z,24.30
2018-07-07T18:03:59.015Z,24.30
2018-07-07T18:09:03.320Z,24.20
2018-07-07T18:14:07.621Z,24.20
2018-07-07T18:19:11.797Z,24.20
2018-07-07T18:24:15.919Z,24.00
2018-07-07T18:29:20.024Z,24.00
2018-07-07T18:34:24.267Z,23.90
2018-07-07T18:39:28.489Z,23.90
2018-07-07T18:44:32.956Z,23.80
2018-07-07T18:49:37.336Z,23.80
2018-07-07T18:54:42.048Z,23.80
2018-07-07T18:59:46.341Z,23.80
2018-07-07T19:04:50.562Z,23.70
2018-07-07T19:09:54.830Z,23.60
2018-07-07T19:15:04.578Z,23.50
2018-07-07T19:22:15.451Z,23.40
2018-07-07T19:27:19.642Z,23.30
2018-07-07T19:32:29.420Z,23.10
2018-07-07T19:37:33.870Z,23.00
2018-07-07T19:42:38.502Z,23.00
2018-07-07T19:47:42.732Z,22.70
2018-07-07T19:52:47.009Z,22.50
2018-07-07T19:57:51.764Z,22.30
2018-07-07T20:02:55.975Z,22.20
2018-07-07T20:08:00.182Z,22.20
2018-07-07T20:13:04.808Z,22.00
2018-07-07T20:18:09.106Z,21.80
2018-07-07T20:23:16.734Z,21.60
2018-07-07T20:28:26.275Z,21.40
2018-07-07T20:33:30.813Z,21.40
2018-07-07T20:38:35.176Z,21.20
2018-07-07T20:43:39.613Z,21.10
2018-07-07T20:54:03.862Z,20.90
2018-07-07T20:59:10.641Z,20.90
2018-07-07T21:04:15.241Z,20.70
2018-07-07T21:09:19.643Z,20.40
2018-07-07T21:14:23.885Z,20.40
2018-07-07T21:19:28.147Z,20.40
2018-07-07T21:24:32.389Z,20.30
2018-07-07T21:29:37.580Z,20.10
2018-07-07T21:34:43.061Z,20.10
2018-07-07T21:39:48.017Z,20.00
2018-07-07T21:49:56.581Z,19.90
2018-07-07T21:55:00.700Z,19.80
2018-07-07T22:00:06.671Z,19.80
2018-07-07T22:05:16.536Z,19.80
2018-07-07T22:10:20.961Z,19.70
2018-07-07T22:15:27.034Z,19.80
2018-07-07T22:20:35.162Z,19.80
2018-07-07T22:25:41.819Z,19.70
2018-07-07T22:30:46.542Z,19.60
2018-07-07T22:35:56.282Z,19.50
2018-07-07T22:41:01.231Z,19.50
2018-07-07T22:46:06.445Z,19.60
2018-07-07T22:51:10.673Z,19.50
2018-07-07T22:56:15.319Z,19.30
2018-07-07T23:01:19.885Z,19.40
2018-07-07T23:06:24.319Z,19.40
2018-07-07T23:11:28.564Z,19.40
2018-07-07T23:16:33.421Z,19.30
2018-07-07T23:21:37.902Z,19.30
2018-07-07T23:26:42.429Z,19.30
2018-07-07T23:31:46.852Z,19.20
2018-07-07T23:36:51.069Z,19.10
2018-07-07T23:41:55.293Z,19.00
2018-07-07T23:46:59.660Z,19.00
2018-07-07T23:52:03.998Z,19.00
2018-07-07T23:57:08.504Z,19.00
